Time,TemperatureF,DewpointF,PressureIn,WindDirection,WindDirectionDegrees,WindSpeedMPH,WindSpeedGustMPH,Humidity,HourlyPrecipIn,Conditions,Clouds,dailyrainin,SoftwareType,DateUTC
2013-11-06 00:01:00,42.3,35.6,30.49,SSW,203,0.0,0.0,77,0.00,,,0.00,WUHU216HW,2013-11-06 05:01:00,
2013-11-06 00:02:00,42.3,35.6,30.49,SSW,203,0.0,0.0,77,0.00,,,0.00,WUHU216HW,2013-11-06 05:02:00,
2013-11-06 00:07:00,42.3,35.6,30.49,SSW,203,0.0,0.0,77,0.00,,,0.00,WUHU216HW,2013-11-06 05:07:00,
2013-11-06 00:12:00,42.3,35.9,30.49,SSW,203,0.0,0.0,78,0.00,,,0.00,WUHU216HW,2013-11-06 05:12:00,
2013-11-06 00:17:00,42.3,35.9,30.48,SSW,203,0.0,0.4,78,0.00,,,0.00,WUHU216HW,2013-11-06 05:17:00,
2013-11-06 00:22:00,42.1,35.7,30.48,SSW,203,0.0,0.4,78,0.00,,,0.00,WUHU216HW,2013-11-06 05:22:00,
2013-11-06 00:27:00,42.1,35.7,30.47,SSW,203,0.0,0.0,78,0.00,,,0.00,WUHU216HW,2013-11-06 05:27:00,
2013-11-06 00:32:00,42.1,35.7,30.46,SSW,203,0.0,0.0,78,0.00,,,0.00,WUHU216HW,2013-11-06 05:32:00,
2013-11-06 00:37:00,41.9,35.6,30.46,SSW,203,0.0,0.2,78,0.00,,,0.00,WUHU216HW,2013-11-06 05:37:00,
2013-11-06 00:42:00,41.9,35.8,30.46,SSW,203,0.0,0.2,79,0.00,,,0.00,WUHU216HW,2013-11-06 05:42:00,
2013-11-06 00:47:00,41.8,35.4,30.47,SSW,203,0.0,0.0,78,0.00,,,0.00,WUHU216HW,2013-11-06 05:47:00,
2013-11-06 00:52:00,41.8,35.4,30.47,SSW,203,0.0,0.0,78,0.00,,,0.00,WUHU216HW,2013-11-06 05:52:00,
2013-11-06 00:57:00,41.6,35.2,30.47,SSW,203,0.0,0.0,78,0.00,,,0.00,WUHU216HW,2013-11-06 05:57:00,
2013-11-06 01:02:00,41.4,35.0,30.46,SSW,203,0.0,0.0,78,0.00,,,0.00,WUHU216HW,2013-11-06 06:02:00,
2013-11-06 01:07:00,41.4,35.3,30.47,SSW,203,0.0,0.0,79,0.00,,,0.00,WUHU216HW,2013-11-06 06:07:00,
2013-11-06 01:12:00,41.2,35.1,30.47,SSW,203,0.0,0.0,79,0.00,,,0.00,WUHU216HW,2013-11-06 06:12:00,
2013-11-06 01:17:00,41.0,34.9,30.47,SSW,203,0.0,0.0,79,0.00,,,0.00,WUHU216HW,2013-11-06 06:17:00,
2013-11-06 01:22:00,40.7,34.7,30.47,SSW,203,0.0,0.0,79,0.00,,,0.00,WUHU216HW,2013-11-06 06:22:00,
2013-11-06 01:27:00,40.7,34.9,30.47,SSW,203,0.0,0.0,80,0.00,,,0.00,WUHU216HW,2013-11-06 06:27:00,
2013-11-06 01:32:00,40.7,34.9,30.47,SSW,203,0.0,0.0,80,0.00,,,0.00,WUHU216HW,2013-11-06 06:32:00,
2013-11-06 01:37:00,40.7,34.9,30.47,SSW,203,0.0,0.0,80,0.00,,,0.00,WUHU216HW,2013-11-06 06:37:00,
2013-11-06 01:42:00,40.7,35.3,30.46,SSW,203,0.4,0.7,81,0.00,,,0.00,WUHU216HW,2013-11-06 06:42:00,
2013-11-06 01:47:00,40.7,35.3,30.46,SSW,203,0.0,0.7,81,0.00,,,0.00,WUHU216HW,2013-11-06 06:47:00,
2013-11-06 01:52:00,40.7,35.3,30.46,SSW,203,0.0,0.4,81,0.00,,,0.00,WUHU216HW,2013-11-06 06:52:00,
2013-11-06 01:57:00,40.7,35.3,30.46,SSW,203,0.0,0.4,81,0.00,,,0.00,WUHU216HW,2013-11-06 06:57:00,
2013-11-06 02:02:00,40.7,35.3,30.46,SSW,203,0.0,0.4,81,0.00,,,0.00,WUHU216HW,2013-11-06 07:02:00,
2013-11-06 02:07:00,40.5,35.1,30.46,SSW,203,0.0,0.0,81,0.00,,,0.00,WUHU216HW,2013-11-06 07:07:00,
2013-11-06 02:12:00,40.5,35.1,30.46,SSW,203,0.0,0.0,81,0.00,,,0.00,WUHU216HW,2013-11-06 07:12:00,
2013-11-06 02:17:00,40.3,34.9,30.46,SSW,203,0.0,0.0,81,0.00,,,0.00,WUHU216HW,2013-11-06 07:17:00,
2013-11-06 02:22:00,40.3,34.9,30.46,SSW,203,0.0,0.0,81,0.00,,,0.00,WUHU216HW,2013-11-06 07:22:00,
2013-11-06 02:27:00,40.3,34.9,30.46,SSW,203,0.0,0.0,81,0.00,,,0.00,WUHU216HW,2013-11-06 07:27:00,
2013-11-06 02:32:00,40.3,35.2,30.45,SSW,203,0.0,0.2,82,0.00,,,0.00,WUHU216HW,2013-11-06 07:32:00,
2013-11-06 02:37:00,40.1,35.1,30.45,SSW,203,0.0,0.2,82,0.00,,,0.00,WUHU216HW,2013-11-06 07:37:00,
2013-11-06 02:42:00,40.0,34.9,30.45,SSW,203,0.0,0.2,82,0.00,,,0.00,WUHU216HW,2013-11-06 07:42:00,
2013-11-06 02:47:00,40.0,34.6,30.44,SSW,203,0.0,0.2,81,0.00,,,0.00,WUHU216HW,2013-11-06 07:47:00,
2013-11-06 02:52:00,40.0,34.6,30.45,SSW,203,0.0,0.0,81,0.00,,,0.00,WUHU216HW,2013-11-06 07:52:00,
2013-11-06 02:57:00,39.8,34.5,30.44,SSW,203,0.4,0.4,81,0.00,,,0.00,WUHU216HW,2013-11-06 07:57:00,
2013-11-06 03:02:00,39.8,34.5,30.44,SSW,203,0.0,0.4,81,0.00,,,0.00,WUHU216HW,2013-11-06 08:02:00,
2013-11-06 03:07:00,39.6,34.3,30.44,SSW,203,0.0,0.2,81,0.00,,,0.00,WUHU216HW,2013-11-06 08:07:00,
2013-11-06 03:12:00,39.6,34.6,30.44,SSW,203,0.0,0.0,82,0.00,,,0.00,WUHU216HW,2013-11-06 08:12:00,
2013-11-06 03:17:00,39.4,34.4,30.43,SSW,203,0.0,0.0,82,0.00,,,0.00,WUHU216HW,2013-11-06 08:17:00,
2013-11-06 03:22:00,39.4,34.4,30.43,SSW,203,0.0,0.0,82,0.00,,,0.00,WUHU216HW,2013-11-06 08:22:00,
2013-11-06 03:27:00,39.2,34.2,30.43,SSW,203,0.4,0.4,82,0.00,,,0.00,WUHU216HW,2013-11-06 08:27:00,
2013-11-06 03:32:00,39.2,34.2,30.43,SSW,203,0.0,0.4,82,0.00,,,0.00,WUHU216HW,2013-11-06 08:32:00,
2013-11-06 03:37:00,39.2,34.2,30.43,SSW,203,0.0,0.2,82,0.00,,,0.00,WUHU216HW,2013-11-06 08:37:00,
2013-11-06 03:42:00,39.1,34.0,30.43,SSW,203,0.0,0.0,82,0.00,,,0.00,WUHU216HW,2013-11-06 08:42:00,
2013-11-06 03:47:00,38.9,33.8,30.43,SSW,203,0.0,0.0,82,0.00,,,0.00,WUHU216HW,2013-11-06 08:47:00,
2013-11-06 03:52:00,38.7,33.7,30.43,SSW,203,0.0,0.0,82,0.00,,,0.00,WUHU216HW,2013-11-06 08:52:00,
2013-11-06 03:57:00,38.5,33.5,30.43,SSW,203,0.0,0.0,82,0.00,,,0.00,WUHU216HW,2013-11-06 08:57:00,
2013-11-06 04:02:00,38.5,33.9,30.43,SSW,203,0.0,0.0,83,0.00,,,0.00,WUHU216HW,2013-11-06 09:02:00,
2013-11-06 04:07:00,38.5,33.9,30.43,SSW,203,0.0,0.0,83,0.00,,,0.00,WUHU216HW,2013-11-06 09:07:00,
2013-11-06 04:12:00,38.5,33.9,30.43,SSW,203,0.0,0.0,83,0.00,,,0.00,WUHU216HW,2013-11-06 09:12:00,
2013-11-06 04:22:00,38.5,33.9,30.43,SSW,203,0.0,0.0,83,0.00,,,0.00,WUHU216HW,2013-11-06 09:22:00,
2013-11-06 04:27:00,38.3,33.9,30.43,SSW,203,0.0,0.0,84,0.00,,,0.00,WUHU216HW,2013-11-06 09:27:00,
2013-11-06 04:32:00,38.3,33.9,30.43,SSW,203,0.0,0.0,84,0.00,,,0.00,WUHU216HW,2013-11-06 09:32:00,
2013-11-06 04:37:00,38.2,33.8,30.43,SSW,203,0.0,0.0,84,0.00,,,0.00,WUHU216HW,2013-11-06 09:37:00,
2013-11-06 04:42:00,38.2,33.8,30.43,SSW,203,0.0,0.0,84,0.00,,,0.00,WUHU216HW,2013-11-06 09:42:00,
2013-11-06 04:47:00,38.2,33.8,30.43,SSW,203,0.0,0.0,84,0.00,,,0.00,WUHU216HW,2013-11-06 09:47:00,
2013-11-06 04:52:00,38.2,33.8,30.43,SSW,203,0.0,0.0,84,0.00,,,0.00,WUHU216HW,2013-11-06 09:52:00,
2013-11-06 04:57:00,38.0,33.6,30.43,SSW,203,0.0,0.0,84,0.00,,,0.00,WUHU216HW,2013-11-06 09:57:00,
2013-11-06 05:02:00,38.0,33.6,30.43,SSW,203,0.0,0.0,84,0.00,,,0.00,WUHU216HW,2013-11-06 10:02:00,
2013-11-06 05:07:00,37.8,33.7,30.43,SSW,203,0.0,0.4,85,0.00,,,0.00,WUHU216HW,2013-11-06 10:07:00,
2013-11-06 05:12:00,37.8,33.7,30.42,SSW,203,0.0,0.4,85,0.00,,,0.00,WUHU216HW,2013-11-06 10:12:00,
2013-11-06 05:17:00,38.0,33.8,30.42,SSW,203,0.0,0.0,85,0.00,,,0.00,WUHU216HW,2013-11-06 10:17:00,
2013-11-06 05:22:00,38.2,34.0,30.42,SSW,203,0.0,0.0,85,0.00,,,0.00,WUHU216HW,2013-11-06 10:22:00,
2013-11-06 05:27:00,38.3,34.5,30.42,SSW,203,0.0,0.0,86,0.00,,,0.00,WUHU216HW,2013-11-06 10:27:00,
2013-11-06 05:32:00,38.3,34.5,30.42,SSW,203,0.0,0.0,86,0.00,,,0.00,WUHU216HW,2013-11-06 10:32:00,
2013-11-06 05:37:00,38.5,34.7,30.42,SSW,203,0.0,0.0,86,0.00,,,0.00,WUHU216HW,2013-11-06 10:37:00,
2013-11-06 05:42:00,38.3,34.5,30.42,SSW,203,0.0,0.2,86,0.00,,,0.00,WUHU216HW,2013-11-06 10:42:00,
2013-11-06 05:47:00,38.2,34.3,30.41,SSW,203,0.0,0.2,86,0.00,,,0.00,WUHU216HW,2013-11-06 10:47:00,
2013-11-06 05:52:00,38.0,33.8,30.41,SSW,203,0.0,0.0,85,0.00,,,0.00,WUHU216HW,2013-11-06 10:52:00,
2013-11-06 05:57:00,37.8,33.7,30.41,SSW,203,0.0,0.0,85,0.00,,,0.00,WUHU216HW,2013-11-06 10:57:00,
2013-11-06 06:02:00,37.8,33.9,30.41,SSW,203,0.0,0.0,86,0.00,,,0.00,WUHU216HW,2013-11-06 11:02:00,
2013-11-06 06:07:00,37.8,33.9,30.41,SSW,203,0.0,0.0,86,0.00,,,0.00,WUHU216HW,2013-11-06 11:07:00,
2013-11-06 06:12:00,38.0,34.1,30.41,SSW,203,0.0,0.0,86,0.00,,,0.00,WUHU216HW,2013-11-06 11:12:00,
2013-11-06 06:17:00,38.0,34.1,30.41,SSW,203,0.0,0.0,86,0.00,,,0.00,WUHU216HW,2013-11-06 11:17:00,
2013-11-06 06:22:00,37.8,34.2,30.41,SSW,203,0.0,0.0,87,0.00,,,0.00,WUHU216HW,2013-11-06 11:22:00,
2013-11-06 06:27:00,37.8,34.2,30.41,SSW,203,0.0,0.0,87,0.00,,,0.00,WUHU216HW,2013-11-06 11:27:00,
2013-11-06 06:32:00,37.8,33.9,30.41,SSW,203,0.0,0.0,86,0.00,,,0.00,WUHU216HW,2013-11-06 11:32:00,
2013-11-06 06:37:00,37.8,34.2,30.41,SSW,203,0.0,0.0,87,0.00,,,0.00,WUHU216HW,2013-11-06 11:37:00,
2013-11-06 06:42:00,37.6,33.8,30.41,SSW,203,0.0,0.0,86,0.00,,,0.00,WUHU216HW,2013-11-06 11:42:00,
2013-11-06 06:47:00,37.8,33.9,30.41,SSW,203,0.0,0.0,86,0.00,,,0.00,WUHU216HW,2013-11-06 11:47:00,
2013-11-06 06:52:00,38.0,34.1,30.41,SSW,203,0.0,0.0,86,0.00,,,0.00,WUHU216HW,2013-11-06 11:52:00,
2013-11-06 06:57:00,38.0,34.1,30.41,SSW,203,0.0,0.0,86,0.00,,,0.00,WUHU216HW,2013-11-06 11:57:00,
2013-11-06 07:02:00,38.0,34.1,30.41,SSW,203,0.0,0.0,86,0.00,,,0.00,WUHU216HW,2013-11-06 12:02:00,
2013-11-06 07:07:00,38.0,34.1,30.41,SSW,203,0.0,0.0,86,0.00,,,0.00,WUHU216HW,2013-11-06 12:07:00,
2013-11-06 07:12:00,38.0,34.1,30.41,SSW,203,0.0,0.0,86,0.00,,,0.00,WUHU216HW,2013-11-06 12:12:00,
2013-11-06 07:17:00,38.0,34.1,30.41,SSW,203,0.0,0.0,86,0.00,,,0.00,WUHU216HW,2013-11-06 12:17:00,
2013-11-06 07:22:00,38.0,34.4,30.41,SSW,203,0.0,0.0,87,0.00,,,0.00,WUHU216HW,2013-11-06 12:22:00,
2013-11-06 07:27:00,38.2,34.6,30.41,SSW,203,0.0,0.4,87,0.00,,,0.00,WUHU216HW,2013-11-06 12:27:00,
2013-11-06 07:32:00,38.2,34.6,30.41,SSW,203,0.0,0.4,87,0.00,,,0.00,WUHU216HW,2013-11-06 12:32:00,
2013-11-06 07:37:00,38.3,34.7,30.41,SSW,203,0.0,0.0,87,0.00,,,0.00,WUHU216HW,2013-11-06 12:37:00,
2013-11-06 07:42:00,38.5,34.9,30.41,SSW,203,0.0,0.0,87,0.00,,,0.00,WUHU216HW,2013-11-06 12:42:00,
2013-11-06 07:47:00,38.9,35.3,30.40,SSW,203,0.0,0.0,87,0.00,,,0.00,WUHU216HW,2013-11-06 12:47:00,
2013-11-06 07:52:00,39.2,35.6,30.40,SSW,203,0.0,0.0,87,0.00,,,0.00,WUHU216HW,2013-11-06 12:52:00,
2013-11-06 07:57:00,39.6,36.0,30.40,SSW,203,0.0,0.0,87,0.00,,,0.00,WUHU216HW,2013-11-06 12:57:00,
2013-11-06 08:02:00,40.1,36.5,30.40,SSW,203,0.0,0.0,87,0.00,,,0.00,WUHU216HW,2013-11-06 13:02:00,
2013-11-06 08:07:00,40.5,36.9,30.40,SSW,203,0.0,0.0,87,0.00,,,0.00,WUHU216HW,2013-11-06 13:07:00,
2013-11-06 08:12:00,41.0,37.5,30.40,SSW,203,0.0,0.0,87,0.00,,,0.00,WUHU216HW,2013-11-06 13:12:00,
2013-11-06 08:17:00,41.6,38.0,30.40,SSW,203,0.4,0.4,87,0.00,,,0.00,WUHU216HW,2013-11-06 13:17:00,
2013-11-06 08:22:00,42.3,38.7,30.40,SSW,203,0.2,0.4,87,0.00,,,0.00,WUHU216HW,2013-11-06 13:22:00,
2013-11-06 08:27:00,42.8,38.9,30.40,SSW,203,0.0,0.2,86,0.00,,,0.00,WUHU216HW,2013-11-06 13:27:00,
2013-11-06 08:32:00,43.4,39.8,30.40,SSW,203,0.0,0.2,87,0.00,,,0.00,WUHU216HW,2013-11-06 13:32:00,
2013-11-06 08:37:00,43.9,40.0,30.39,SSW,203,0.0,0.2,86,0.00,,,0.00,WUHU216HW,2013-11-06 13:37:00,
2013-11-06 08:42:00,44.5,40.2,30.39,SSW,203,0.0,0.0,85,0.00,,,0.00,WUHU216HW,2013-11-06 13:42:00,
2013-11-06 08:47:00,45.2,41.0,30.38,SE,135,0.4,1.3,85,0.00,,,0.00,WUHU216HW,2013-11-06 13:47:00,
2013-11-06 08:52:00,45.7,41.5,30.38,NNW,338,0.2,1.3,85,0.00,,,0.00,WUHU216HW,2013-11-06 13:52:00,
2013-11-06 08:57:00,46.3,41.8,30.38,NNW,338,0.0,0.4,84,0.00,,,0.00,WUHU216HW,2013-11-06 13:57:00,
2013-11-06 09:02:00,46.4,41.6,30.38,North,0,0.9,0.9,83,0.00,,,0.00,WUHU216HW,2013-11-06 14:02:00,
2013-11-06 09:07:00,46.8,42.0,30.38,NE,45,0.0,0.9,83,0.00,,,0.00,WUHU216HW,2013-11-06 14:07:00,
2013-11-06 09:12:00,47.0,42.1,30.38,NE,45,0.0,0.4,83,0.00,,,0.00,WUHU216HW,2013-11-06 14:12:00,
2013-11-06 09:17:00,47.2,41.9,30.37,WSW,248,1.1,1.1,82,0.00,,,0.00,WUHU216HW,2013-11-06 14:17:00,
2013-11-06 09:22:00,47.7,42.5,30.37,SSW,203,0.4,1.1,82,0.00,,,0.00,WUHU216HW,2013-11-06 14:22:00,
2013-11-06 09:27:00,48.2,42.9,30.37,SW,225,1.1,1.1,82,0.00,,,0.00,WUHU216HW,2013-11-06 14:27:00,
2013-11-06 09:32:00,49.0,43.7,30.37,SE,135,0.7,1.3,82,0.00,,,0.00,WUHU216HW,2013-11-06 14:32:00,
2013-11-06 09:37:00,49.7,44.4,30.37,West,270,1.1,1.6,82,0.00,,,0.00,WUHU216HW,2013-11-06 14:37:00,
2013-11-06 09:42:00,50.4,44.7,30.36,WSW,248,0.2,1.6,81,0.00,,,0.00,WUHU216HW,2013-11-06 14:42:00,
2013-11-06 09:47:00,50.8,44.8,30.36,WSW,248,0.7,1.1,80,0.00,,,0.00,WUHU216HW,2013-11-06 14:47:00,
2013-11-06 09:52:00,51.5,44.8,30.35,SW,225,0.7,1.8,78,0.00,,,0.00,WUHU216HW,2013-11-06 14:52:00,
2013-11-06 09:57:00,51.8,44.9,30.35,NW,315,1.3,1.8,77,0.00,,,0.00,WUHU216HW,2013-11-06 14:57:00,
2013-11-06 10:02:00,52.6,45.2,30.35,West,270,0.2,3.1,76,0.00,,,0.00,WUHU216HW,2013-11-06 15:02:00,
2013-11-06 10:07:00,52.9,44.8,30.35,SSE,158,1.6,3.4,74,0.00,,,0.00,WUHU216HW,2013-11-06 15:07:00,
2013-11-06 10:12:00,53.3,45.5,30.35,SSE,158,1.6,3.4,75,0.00,,,0.00,WUHU216HW,2013-11-06 15:12:00,
2013-11-06 10:17:00,53.8,45.4,30.35,SSE,158,1.3,2.7,73,0.00,,,0.00,WUHU216HW,2013-11-06 15:17:00,
2013-11-06 10:22:00,54.4,45.9,30.35,SE,135,0.9,2.7,73,0.00,,,0.00,WUHU216HW,2013-11-06 15:22:00,
2013-11-06 10:27:00,54.5,45.4,30.35,NW,315,0.2,2.2,71,0.00,,,0.00,WUHU216HW,2013-11-06 15:27:00,
2013-11-06 10:32:00,54.9,45.7,30.35,SSW,203,0.2,2.5,71,0.00,,,0.00,WUHU216HW,2013-11-06 15:32:00,
2013-11-06 10:37:00,55.1,45.5,30.35,South,180,0.4,2.5,70,0.00,,,0.00,WUHU216HW,2013-11-06 15:37:00,
2013-11-06 10:42:00,55.8,46.5,30.35,NNW,338,1.3,1.8,71,0.00,,,0.00,WUHU216HW,2013-11-06 15:42:00,
2013-11-06 10:47:00,56.3,46.3,30.35,SE,135,1.1,1.3,69,0.00,,,0.00,WUHU216HW,2013-11-06 15:47:00,
2013-11-06 10:52:00,56.5,46.1,30.34,WNW,293,0.2,1.8,68,0.00,,,0.00,WUHU216HW,2013-11-06 15:52:00,
2013-11-06 10:57:00,56.9,45.6,30.34,SSW,203,0.4,3.4,66,0.00,,,0.00,WUHU216HW,2013-11-06 15:57:00,
2013-11-06 11:02:00,56.9,46.0,30.34,NW,315,1.8,3.6,67,0.00,,,0.00,WUHU216HW,2013-11-06 16:02:00,
2013-11-06 11:07:00,57.1,45.4,30.33,WNW,293,0.4,3.6,65,0.00,,,0.00,WUHU216HW,2013-11-06 16:07:00,
2013-11-06 11:12:00,57.6,46.7,30.33,SSE,158,0.4,2.5,67,0.00,,,0.00,WUHU216HW,2013-11-06 16:12:00,
2013-11-06 11:17:00,58.1,46.4,30.33,WSW,248,1.1,4.3,65,0.00,,,0.00,WUHU216HW,2013-11-06 16:17:00,
2013-11-06 11:22:00,58.1,46.0,30.33,North,0,0.7,4.3,64,0.00,,,0.00,WUHU216HW,2013-11-06 16:22:00,
2013-11-06 11:27:00,58.1,46.0,30.32,West,270,1.1,3.6,64,0.00,,,0.00,WUHU216HW,2013-11-06 16:27:00,
2013-11-06 11:32:00,58.3,46.2,30.32,SSE,158,1.6,2.9,64,0.00,,,0.00,WUHU216HW,2013-11-06 16:32:00,
2013-11-06 11:37:00,58.7,46.1,30.31,ENE,68,1.6,1.6,63,0.00,,,0.00,WUHU216HW,2013-11-06 16:37:00,
2013-11-06 11:42:00,58.3,45.7,30.31,SSW,203,2.0,3.1,63,0.00,,,0.00,WUHU216HW,2013-11-06 16:42:00,
2013-11-06 11:47:00,58.3,46.2,30.31,WSW,248,0.4,3.1,64,0.00,,,0.00,WUHU216HW,2013-11-06 16:47:00,
2013-11-06 11:52:00,58.7,46.5,30.30,WNW,293,2.7,2.7,64,0.00,,,0.00,WUHU216HW,2013-11-06 16:52:00,
2013-11-06 11:57:00,58.9,46.3,30.30,SSE,158,1.1,2.7,63,0.00,,,0.00,WUHU216HW,2013-11-06 16:57:00,
2013-11-06 12:02:00,59.6,46.5,30.30,West,270,1.8,2.7,62,0.00,,,0.00,WUHU216HW,2013-11-06 17:02:00,
2013-11-06 12:07:00,59.8,46.7,30.29,SSE,158,1.3,3.6,62,0.00,,,0.00,WUHU216HW,2013-11-06 17:07:00,
2013-11-06 12:12:00,60.1,46.7,30.28,NNW,338,0.4,3.6,61,0.00,,,0.00,WUHU216HW,2013-11-06 17:12:00,
2013-11-06 12:17:00,60.1,46.3,30.28,North,0,0.2,1.8,60,0.00,,,0.00,WUHU216HW,2013-11-06 17:17:00,
2013-11-06 12:22:00,60.3,46.4,30.28,SSW,203,0.9,3.6,60,0.00,,,0.00,WUHU216HW,2013-11-06 17:22:00,
2013-11-06 12:27:00,60.5,46.6,30.28,SSE,158,0.0,3.6,60,0.00,,,0.00,WUHU216HW,2013-11-06 17:27:00,
2013-11-06 12:32:00,60.3,46.0,30.28,West,270,1.1,2.5,59,0.00,,,0.00,WUHU216HW,2013-11-06 17:32:00,
2013-11-06 12:37:00,60.1,45.8,30.27,SE,135,1.1,2.5,59,0.00,,,0.00,WUHU216HW,2013-11-06 17:37:00,
2013-11-06 12:42:00,59.9,45.6,30.27,WNW,293,2.9,4.7,59,0.00,,,0.00,WUHU216HW,2013-11-06 17:42:00,
2013-11-06 12:47:00,60.1,46.3,30.26,SSE,158,0.4,4.7,60,0.00,,,0.00,WUHU216HW,2013-11-06 17:47:00,
2013-11-06 12:52:00,60.3,46.4,30.26,West,270,1.1,2.2,60,0.00,,,0.00,WUHU216HW,2013-11-06 17:52:00,
2013-11-06 12:57:00,60.3,46.4,30.25,ESE,113,0.2,1.6,60,0.00,,,0.00,WUHU216HW,2013-11-06 17:57:00,
2013-11-06 13:02:00,60.7,46.8,30.25,South,180,0.4,2.2,60,0.00,,,0.00,WUHU216HW,2013-11-06 18:02:00,
2013-11-06 13:07:00,61.2,46.8,30.25,SSE,158,1.1,3.4,59,0.00,,,0.00,WUHU216HW,2013-11-06 18:07:00,
2013-11-06 13:12:00,61.4,46.0,30.25,West,270,1.3,3.4,57,0.00,,,0.00,WUHU216HW,2013-11-06 18:12:00,
2013-11-06 13:17:00,61.4,46.5,30.25,WNW,293,0.9,1.8,58,0.00,,,0.00,WUHU216HW,2013-11-06 18:17:00,
2013-11-06 13:22:00,61.6,46.2,30.25,South,180,2.2,4.0,57,0.00,,,0.00,WUHU216HW,2013-11-06 18:22:00,
2013-11-06 13:26:00,61.4,45.6,30.25,ESE,113,1.1,4.0,56,0.00,,,0.00,WUHU216HW,2013-11-06 18:26:00,
2013-11-06 13:31:00,61.0,45.7,30.24,SW,225,3.1,3.8,57,0.00,,,0.00,WUHU216HW,2013-11-06 18:31:00,
2013-11-06 13:36:00,60.5,45.2,30.24,SSW,203,0.4,3.8,57,0.00,,,0.00,WUHU216HW,2013-11-06 18:36:00,
2013-11-06 13:41:00,60.3,45.5,30.24,SSE,158,0.7,3.4,58,0.00,,,0.00,WUHU216HW,2013-11-06 18:41:00,
2013-11-06 13:46:00,60.5,45.6,30.24,West,270,1.3,3.4,58,0.00,,,0.00,WUHU216HW,2013-11-06 18:46:00,
2013-11-06 13:51:00,60.5,45.6,30.24,WSW,248,2.9,3.4,58,0.00,,,0.00,WUHU216HW,2013-11-06 18:51:00,
2013-11-06 13:56:00,60.7,45.8,30.24,WNW,293,1.8,2.9,58,0.00,,,0.00,WUHU216HW,2013-11-06 18:56:00,
2013-11-06 14:01:00,60.7,45.4,30.24,East,90,1.1,2.9,57,0.00,,,0.00,WUHU216HW,2013-11-06 19:01:00,
2013-11-06 14:06:00,60.1,45.3,30.24,SSE,158,1.6,2.9,58,0.00,,,0.00,WUHU216HW,2013-11-06 19:06:00,
2013-11-06 14:11:00,59.8,44.9,30.23,ESE,113,0.9,2.2,58,0.00,,,0.00,WUHU216HW,2013-11-06 19:11:00,
2013-11-06 14:16:00,59.6,45.3,30.23,SSW,203,1.1,1.8,59,0.00,,,0.00,WUHU216HW,2013-11-06 19:16:00,
2013-11-06 14:21:00,59.4,45.1,30.23,North,0,1.8,2.2,59,0.00,,,0.00,WUHU216HW,2013-11-06 19:21:00,
2013-11-06 14:26:00,59.6,45.3,30.23,NW,315,1.1,2.2,59,0.00,,,0.00,WUHU216HW,2013-11-06 19:26:00,
2013-11-06 14:31:00,59.4,45.1,30.23,WSW,248,1.8,1.8,59,0.00,,,0.00,WUHU216HW,2013-11-06 19:31:00,
2013-11-06 14:36:00,58.9,44.1,30.23,SSE,158,1.1,2.7,58,0.00,,,0.00,WUHU216HW,2013-11-06 19:36:00,
2013-11-06 14:41:00,58.7,44.4,30.23,ESE,113,0.4,2.7,59,0.00,,,0.00,WUHU216HW,2013-11-06 19:41:00,
2013-11-06 14:46:00,58.3,44.1,30.23,SSW,203,1.1,2.2,59,0.00,,,0.00,WUHU216HW,2013-11-06 19:46:00,
2013-11-06 14:51:00,58.1,43.9,30.23,West,270,1.6,1.6,59,0.00,,,0.00,WUHU216HW,2013-11-06 19:51:00,
2013-11-06 14:56:00,58.3,44.6,30.23,East,90,1.1,1.8,60,0.00,,,0.00,WUHU216HW,2013-11-06 19:56:00,
2013-11-06 15:01:00,58.3,44.1,30.23,SE,135,0.9,1.8,59,0.00,,,0.00,WUHU216HW,2013-11-06 20:01:00,
2013-11-06 15:06:00,58.3,44.6,30.23,NW,315,0.4,0.9,60,0.00,,,0.00,WUHU216HW,2013-11-06 20:06:00,
2013-11-06 15:11:00,58.3,44.6,30.23,SSE,158,0.4,1.1,60,0.00,,,0.00,WUHU216HW,2013-11-06 20:11:00,
2013-11-06 15:16:00,58.3,44.6,30.23,SSE,158,0.4,4.3,60,0.00,,,0.00,WUHU216HW,2013-11-06 20:16:00,
2013-11-06 15:21:00,58.1,44.4,30.23,SSW,203,0.0,4.3,60,0.00,,,0.00,WUHU216HW,2013-11-06 20:21:00,
2013-11-06 15:26:00,58.1,44.4,30.23,West,270,2.0,2.0,60,0.00,,,0.00,WUHU216HW,2013-11-06 20:26:00,
2013-11-06 15:31:00,58.1,44.8,30.23,SSE,158,1.8,2.0,61,0.00,,,0.00,WUHU216HW,2013-11-06 20:31:00,
2013-11-06 15:36:00,58.0,44.7,30.22,NW,315,3.1,3.1,61,0.00,,,0.00,WUHU216HW,2013-11-06 20:36:00,
2013-11-06 15:41:00,58.0,44.7,30.22,WSW,248,1.1,3.1,61,0.00,,,0.00,WUHU216HW,2013-11-06 20:41:00,
2013-11-06 15:46:00,57.8,44.5,30.22,NE,45,0.4,1.6,61,0.00,,,0.00,WUHU216HW,2013-11-06 20:46:00,
2013-11-06 15:51:00,57.6,44.3,30.22,SSE,158,0.0,1.6,61,0.00,,,0.00,WUHU216HW,2013-11-06 20:51:00,
2013-11-06 15:56:00,57.6,44.6,30.22,SE,135,0.4,1.6,62,0.00,,,0.00,WUHU216HW,2013-11-06 20:56:00,
2013-11-06 16:01:00,57.4,44.6,30.21,West,270,0.4,2.0,62,0.00,,,0.00,WUHU216HW,2013-11-06 21:01:00,
2013-11-06 16:06:00,57.4,44.6,30.21,NNW,338,0.4,2.0,62,0.00,,,0.00,WUHU216HW,2013-11-06 21:06:00,
2013-11-06 16:11:00,57.2,44.4,30.21,WSW,248,0.0,1.8,62,0.00,,,0.00,WUHU216HW,2013-11-06 21:11:00,
2013-11-06 16:16:00,57.2,44.4,30.21,NNW,338,0.7,1.1,62,0.00,,,0.00,WUHU216HW,2013-11-06 21:16:00,
2013-11-06 16:21:00,57.1,44.6,30.21,SE,135,1.8,3.6,63,0.00,,,0.00,WUHU216HW,2013-11-06 21:21:00,
2013-11-06 16:26:00,57.1,44.6,30.21,NNW,338,1.1,3.6,63,0.00,,,0.00,WUHU216HW,2013-11-06 21:26:00,
2013-11-06 16:31:00,56.9,44.4,30.21,South,180,0.4,2.2,63,0.00,,,0.00,WUHU216HW,2013-11-06 21:31:00,
2013-11-06 16:36:00,56.7,44.2,30.21,NNW,338,0.7,2.5,63,0.00,,,0.00,WUHU216HW,2013-11-06 21:36:00,
2013-11-06 16:41:00,56.7,44.2,30.20,NW,315,0.7,2.5,63,0.00,,,0.00,WUHU216HW,2013-11-06 21:41:00,
2013-11-06 16:46:00,56.5,44.0,30.20,West,270,1.1,4.5,63,0.00,,,0.00,WUHU216HW,2013-11-06 21:46:00,
2013-11-06 16:51:00,56.5,44.0,30.20,SE,135,0.4,4.5,63,0.00,,,0.00,WUHU216HW,2013-11-06 21:51:00,
2013-11-06 16:56:00,56.3,44.3,30.20,SSE,158,1.8,1.8,64,0.00,,,0.00,WUHU216HW,2013-11-06 21:56:00,
2013-11-06 17:01:00,56.2,44.1,30.20,SSE,158,1.3,1.8,64,0.00,,,0.00,WUHU216HW,2013-11-06 22:01:00,
2013-11-06 17:06:00,56.2,44.1,30.20,SE,135,0.0,1.3,64,0.00,,,0.00,WUHU216HW,2013-11-06 22:06:00,
2013-11-06 17:11:00,56.0,44.4,30.20,ESE,113,0.0,1.1,65,0.00,,,0.00,WUHU216HW,2013-11-06 22:11:00,
2013-11-06 17:16:00,55.8,44.2,30.19,West,270,0.9,1.8,65,0.00,,,0.00,WUHU216HW,2013-11-06 22:16:00,
2013-11-06 17:21:00,55.6,44.4,30.19,WSW,248,0.9,3.1,66,0.00,,,0.00,WUHU216HW,2013-11-06 22:21:00,
2013-11-06 17:26:00,55.6,44.8,30.19,SE,135,1.3,3.1,67,0.00,,,0.00,WUHU216HW,2013-11-06 22:26:00,
2013-11-06 17:31:00,55.6,45.3,30.19,NW,315,0.2,2.5,68,0.00,,,0.00,WUHU216HW,2013-11-06 22:31:00,
2013-11-06 17:36:00,55.4,45.1,30.19,West,270,1.6,2.2,68,0.00,,,0.00,WUHU216HW,2013-11-06 22:36:00,
2013-11-06 17:41:00,55.4,45.1,30.19,NNW,338,0.4,1.6,68,0.00,,,0.00,WUHU216HW,2013-11-06 22:41:00,
2013-11-06 17:46:00,55.4,45.5,30.18,SW,225,0.0,2.0,69,0.00,,,0.00,WUHU216HW,2013-11-06 22:46:00,
2013-11-06 17:51:00,55.3,45.3,30.18,West,270,0.7,2.0,69,0.00,,,0.00,WUHU216HW,2013-11-06 22:51:00,
2013-11-06 17:56:00,55.1,45.1,30.18,SSE,158,0.4,1.3,69,0.00,,,0.00,WUHU216HW,2013-11-06 22:56:00,
2013-11-06 18:01:00,55.1,45.5,30.18,ENE,68,0.2,1.3,70,0.00,,,0.00,WUHU216HW,2013-11-06 23:01:00,
2013-11-06 18:06:00,54.9,45.7,30.18,SE,135,0.2,0.9,71,0.00,,,0.00,WUHU216HW,2013-11-06 23:06:00,
2013-11-06 18:11:00,54.9,45.7,30.18,ENE,68,0.7,1.8,71,0.00,,,0.00,WUHU216HW,2013-11-06 23:11:00,
2013-11-06 18:16:00,54.9,46.1,30.19,East,90,0.0,1.8,72,0.00,,,0.00,WUHU216HW,2013-11-06 23:16:00,
2013-11-06 18:21:00,55.1,46.3,30.18,SSW,203,0.7,2.7,72,0.00,,,0.00,WUHU216HW,2013-11-06 23:21:00,
2013-11-06 18:26:00,54.9,46.1,30.19,West,270,0.4,2.7,72,0.00,,,0.00,WUHU216HW,2013-11-06 23:26:00,
2013-11-06 18:31:00,54.9,46.1,30.18,SW,225,0.0,0.9,72,0.00,,,0.00,WUHU216HW,2013-11-06 23:31:00,
2013-11-06 18:36:00,54.9,46.5,30.18,SSE,158,0.7,1.3,73,0.00,,,0.00,WUHU216HW,2013-11-06 23:36:00,
2013-11-06 18:41:00,54.7,45.9,30.18,SSW,203,0.7,1.3,72,0.00,,,0.00,WUHU216HW,2013-11-06 23:41:00,
2013-11-06 18:46:00,54.7,46.3,30.18,SE,135,0.4,1.3,73,0.00,,,0.00,WUHU216HW,2013-11-06 23:46:00,
2013-11-06 18:51:00,54.5,46.1,30.17,NE,45,0.0,1.6,73,0.00,,,0.00,WUHU216HW,2013-11-06 23:51:00,
2013-11-06 18:56:00,54.4,46.3,30.16,NNW,338,0.4,1.6,74,0.00,,,0.00,WUHU216HW,2013-11-06 23:56:00,
2013-11-06 19:01:00,54.0,46.3,30.16,SE,135,0.9,1.8,75,0.00,,,0.00,WUHU216HW,2013-11-07 00:01:00,
2013-11-06 19:06:00,53.6,45.9,30.16,SE,135,1.1,2.7,75,0.00,,,0.00,WUHU216HW,2013-11-07 00:06:00,
2013-11-06 19:11:00,53.6,45.9,30.15,ESE,113,0.7,2.7,75,0.00,,,0.00,WUHU216HW,2013-11-07 00:11:00,
2013-11-06 19:16:00,53.3,45.5,30.15,NNW,338,0.0,1.6,75,0.00,,,0.00,WUHU216HW,2013-11-07 00:16:00,
2013-11-06 19:21:00,52.9,45.5,30.15,North,0,0.2,0.4,76,0.00,,,0.00,WUHU216HW,2013-11-07 00:21:00,
2013-11-06 19:26:00,52.9,45.9,30.15,SSE,158,2.0,2.5,77,0.00,,,0.00,WUHU216HW,2013-11-07 00:26:00,
2013-11-06 19:31:00,52.9,46.3,30.15,NNW,338,1.1,2.5,78,0.00,,,0.00,WUHU216HW,2013-11-07 00:31:00,
2013-11-06 19:36:00,52.6,45.5,30.15,WSW,248,0.0,1.3,77,0.00,,,0.00,WUHU216HW,2013-11-07 00:36:00,
2013-11-06 19:41:00,52.6,45.9,30.15,SW,225,0.4,2.2,78,0.00,,,0.00,WUHU216HW,2013-11-07 00:41:00,
2013-11-06 19:46:00,52.2,45.5,30.15,WSW,248,1.1,2.2,78,0.00,,,0.00,WUHU216HW,2013-11-07 00:46:00,
2013-11-06 19:51:00,52.2,45.5,30.15,WSW,248,0.9,1.1,78,0.00,,,0.00,WUHU216HW,2013-11-07 00:51:00,
2013-11-06 19:56:00,52.0,45.7,30.15,SSE,158,0.2,0.9,79,0.00,,,0.00,WUHU216HW,2013-11-07 00:56:00,
2013-11-06 20:01:00,52.0,45.7,30.15,SE,135,0.0,0.7,79,0.00,,,0.00,WUHU216HW,2013-11-07 01:01:00,
2013-11-06 20:06:00,51.8,45.5,30.14,WSW,248,0.4,0.7,79,0.00,,,0.00,WUHU216HW,2013-11-07 01:06:00,
2013-11-06 20:11:00,51.8,45.9,30.14,WSW,248,0.7,0.7,80,0.00,,,0.00,WUHU216HW,2013-11-07 01:11:00,
2013-11-06 20:16:00,51.8,45.9,30.14,NW,315,0.0,1.1,80,0.00,,,0.00,WUHU216HW,2013-11-07 01:16:00,
2013-11-06 20:21:00,51.8,45.9,30.14,North,0,0.0,1.1,80,0.00,,,0.00,WUHU216HW,2013-11-07 01:21:00,
2013-11-06 20:26:00,51.7,46.0,30.14,NNW,338,0.0,0.7,81,0.00,,,0.00,WUHU216HW,2013-11-07 01:26:00,
2013-11-06 20:31:00,51.7,46.0,30.13,NNW,338,0.4,0.7,81,0.00,,,0.00,WUHU216HW,2013-11-07 01:31:00,
2013-11-06 20:36:00,51.5,45.8,30.13,NNW,338,0.0,0.4,81,0.00,,,0.00,WUHU216HW,2013-11-07 01:36:00,
2013-11-06 20:41:00,51.5,45.8,30.13,NNW,338,0.0,0.4,81,0.00,,,0.00,WUHU216HW,2013-11-07 01:41:00,
2013-11-06 20:46:00,51.3,45.6,30.13,NNW,338,0.9,0.9,81,0.00,,,0.00,WUHU216HW,2013-11-07 01:46:00,
2013-11-06 20:51:00,51.3,45.6,30.12,NNW,338,0.0,0.9,81,0.00,,,0.00,WUHU216HW,2013-11-07 01:51:00,
2013-11-06 20:56:00,51.1,45.8,30.12,NNW,338,0.0,0.2,82,0.00,,,0.00,WUHU216HW,2013-11-07 01:56:00,
2013-11-06 21:01:00,50.9,45.3,30.12,NNW,338,0.0,0.2,81,0.00,,,0.00,WUHU216HW,2013-11-07 02:01:00,
2013-11-06 21:06:00,50.8,45.5,30.12,NNW,338,0.0,0.2,82,0.00,,,0.00,WUHU216HW,2013-11-07 02:06:00,
2013-11-06 21:11:00,50.8,45.5,30.12,NNW,338,0.0,0.2,82,0.00,,,0.00,WUHU216HW,2013-11-07 02:11:00,
2013-11-06 21:16:00,50.8,45.5,30.11,NNW,338,0.2,0.2,82,0.00,,,0.00,WUHU216HW,2013-11-07 02:16:00,
2013-11-06 21:21:00,50.6,45.5,30.11,NNW,338,0.0,0.2,83,0.00,,,0.00,WUHU216HW,2013-11-07 02:21:00,
2013-11-06 21:26:00,50.4,45.4,30.12,NNW,338,0.0,0.0,83,0.00,,,0.00,WUHU216HW,2013-11-07 02:26:00,
2013-11-06 21:31:00,50.4,45.4,30.12,NNW,338,0.0,0.0,83,0.00,,,0.00,WUHU216HW,2013-11-07 02:31:00,
2013-11-06 21:36:00,50.4,45.4,30.12,NNW,338,0.0,0.0,83,0.00,,,0.00,WUHU216HW,2013-11-07 02:36:00,
2013-11-06 21:41:00,50.4,45.4,30.12,NNW,338,0.0,0.0,83,0.00,,,0.00,WUHU216HW,2013-11-07 02:41:00,
2013-11-06 21:46:00,50.4,45.4,30.12,NNW,338,0.0,0.0,83,0.00,,,0.00,WUHU216HW,2013-11-07 02:46:00,
2013-11-06 21:51:00,50.4,45.4,30.12,NNW,338,0.0,0.4,83,0.00,,,0.00,WUHU216HW,2013-11-07 02:51:00,
2013-11-06 21:56:00,50.4,45.4,30.12,ENE,68,1.1,1.1,83,0.00,,,0.00,WUHU216HW,2013-11-07 02:56:00,
2013-11-06 22:01:00,50.4,45.7,30.11,ENE,68,0.0,1.1,84,0.00,,,0.00,WUHU216HW,2013-11-07 03:01:00,
2013-11-06 22:06:00,50.4,45.7,30.10,ENE,68,0.2,0.2,84,0.00,,,0.00,WUHU216HW,2013-11-07 03:06:00,
2013-11-06 22:11:00,50.4,45.7,30.10,ENE,68,0.2,0.4,84,0.00,,,0.00,WUHU216HW,2013-11-07 03:11:00,
2013-11-06 22:16:00,50.4,46.0,30.10,ENE,68,0.0,0.4,85,0.00,,,0.00,WUHU216HW,2013-11-07 03:16:00,
2013-11-06 22:21:00,50.4,46.0,30.10,ENE,68,0.0,0.4,85,0.00,,,0.00,WUHU216HW,2013-11-07 03:21:00,
2013-11-06 22:26:00,50.4,46.0,30.09,ENE,68,0.0,0.4,85,0.00,,,0.00,WUHU216HW,2013-11-07 03:26:00,
2013-11-06 22:31:00,50.4,46.3,30.09,West,270,0.2,1.6,86,0.00,,,0.00,WUHU216HW,2013-11-07 03:31:00,
2013-11-06 22:36:00,50.4,46.3,30.08,West,270,0.0,1.6,86,0.00,,,0.00,WUHU216HW,2013-11-07 03:36:00,
2013-11-06 22:41:00,50.4,46.3,30.08,West,270,0.0,0.4,86,0.00,,,0.00,WUHU216HW,2013-11-07 03:41:00,
2013-11-06 22:46:00,50.4,46.3,30.08,West,270,0.0,0.2,86,0.00,,,0.00,WUHU216HW,2013-11-07 03:46:00,
2013-11-06 22:51:00,50.4,46.3,30.07,NNE,23,1.1,1.1,86,0.00,,,0.00,WUHU216HW,2013-11-07 03:51:00,
2013-11-06 22:56:00,50.2,46.1,30.07,SSE,158,0.0,1.1,86,0.00,,,0.00,WUHU216HW,2013-11-07 03:56:00,
2013-11-06 23:01:00,50.2,46.1,30.07,SSE,158,0.0,0.9,86,0.00,,,0.00,WUHU216HW,2013-11-07 04:01:00,
2013-11-06 23:06:00,50.0,45.9,30.07,SSE,158,0.0,0.9,86,0.00,,,0.00,WUHU216HW,2013-11-07 04:06:00,
2013-11-06 23:11:00,50.0,45.9,30.07,SSE,158,0.0,0.4,86,0.00,,,0.00,WUHU216HW,2013-11-07 04:11:00,
2013-11-06 23:16:00,50.0,45.9,30.07,SSE,158,0.0,0.4,86,0.00,,,0.00,WUHU216HW,2013-11-07 04:16:00,
2013-11-06 23:21:00,50.0,45.9,30.07,SSE,158,0.0,0.0,86,0.00,,,0.00,WUHU216HW,2013-11-07 04:21:00,
2013-11-06 23:26:00,50.0,45.9,30.07,SSE,158,0.0,0.0,86,0.00,,,0.00,WUHU216HW,2013-11-07 04:26:00,
2013-11-06 23:31:00,50.4,46.6,30.07,SSE,158,0.0,0.0,87,0.00,,,0.00,WUHU216HW,2013-11-07 04:31:00,
2013-11-06 23:36:00,50.8,47.0,30.07,SSE,158,0.0,0.0,87,0.00,,,0.00,WUHU216HW,2013-11-07 04:36:00,
2013-11-06 23:41:00,50.9,47.4,30.06,SSE,158,0.2,0.2,88,0.00,,,0.00,WUHU216HW,2013-11-07 04:41:00,
2013-11-06 23:46:00,51.1,47.6,30.06,SSE,158,0.0,0.4,88,0.00,,,0.00,WUHU216HW,2013-11-07 04:46:00,
2013-11-06 23:51:00,51.3,48.2,30.06,SSE,158,0.9,0.9,89,0.00,,,0.00,WUHU216HW,2013-11-07 04:51:00,
2013-11-06 23:56:00,51.3,47.8,30.06,SSE,158,0.0,0.9,88,0.00,,,0.00,WUHU216HW,2013-11-07 04:56:00,